Terminal Aerodrome Forecast
Issued by NWS

Current Version | Previous Version | Text Only | Print | Product List | Glossary Off
Versions: 1 2 3 4 5 6 7 8 9 10 11 12 13 14 15 16 17 18 19 20

146
FTUS41 KILN 160220 AAA
TAFLUK
TAF AMD
KLUK 160220Z 1602/1624 24012KT P6SM FEW015 BKN035
     FM160400 26010KT P6SM SKC
     FM160800 28010KT P6SM SCT018
      TEMPO 1609/1612 BKN018
     FM161200 29010KT P6SM SCT028
     FM162200 32006KT P6SM SCT035 BKN150=

USA.gov is the U.S. government's official web portal to all federal, state and local government web resources and services.